createdAt,value
2022-08-05T00:02:25.692Z,18.60
2022-08-05T00:05:05.821Z,18.60
2022-08-05T00:08:01.130Z,18.60
2022-08-05T00:10:38.969Z,18.60
2022-08-05T00:13:20.423Z,18.50
2022-08-05T00:16:36.342Z,18.50
2022-08-05T00:19:19.636Z,18.50
2022-08-05T00:21:58.580Z,18.40
2022-08-05T00:24:43.993Z,18.30
2022-08-05T00:27:16.635Z,18.30
2022-08-05T00:29:44.964Z,18.20
2022-08-05T00:32:25.900Z,18.20
2022-08-05T00:35:07.596Z,18.20
2022-08-05T00:37:53.256Z,18.10
2022-08-05T00:40:26.875Z,18.20
2022-08-05T00:42:59.210Z,18.10
2022-08-05T00:45:38.082Z,18.10
2022-08-05T00:48:11.442Z,18.10
2022-08-05T00:50:44.227Z,18.10
2022-08-05T00:54:01.325Z,18.00
2022-08-05T00:56:22.934Z,18.00
2022-08-05T00:58:52.116Z,17.90
2022-08-05T01:01:42.205Z,17.90
2022-08-05T01:04:26.809Z,17.90
2022-08-05T01:07:13.680Z,17.90
2022-08-05T01:09:55.703Z,17.80
2022-08-05T01:12:24.388Z,17.80
2022-08-05T01:15:36.158Z,17.80
2022-08-05T01:18:13.069Z,17.70
2022-08-05T01:20:46.827Z,17.70
2022-08-05T01:23:34.859Z,17.60
2022-08-05T01:26:27.014Z,17.60
2022-08-05T01:29:05.592Z,17.50
2022-08-05T01:32:03.332Z,17.50
2022-08-05T01:34:50.309Z,17.50
2022-08-05T01:37:26.485Z,17.40
2022-08-05T01:40:01.741Z,17.40
2022-08-05T01:42:38.552Z,17.40
2022-08-05T01:45:24.264Z,17.50
2022-08-05T01:48:00.011Z,17.60
2022-08-05T01:51:15.422Z,17.50
2022-08-05T01:54:12.878Z,17.50
2022-08-05T01:58:10.130Z,17.50
2022-08-05T02:00:01.134Z,17.60
2022-08-05T02:05:30.710Z,17.70
2022-08-05T02:08:05.221Z,17.70
2022-08-05T02:10:42.109Z,17.80
2022-08-05T02:13:53.506Z,17.90
2022-08-05T02:16:52.765Z,17.90
2022-08-05T02:19:27.323Z,18.00
2022-08-05T02:21:59.313Z,18.00
2022-08-05T02:24:51.463Z,18.10
2022-08-05T02:27:58.634Z,18.10
2022-08-05T02:30:28.283Z,18.10
2022-08-05T02:33:03.699Z,18.10
2022-08-05T02:35:38.583Z,18.10
2022-08-05T02:38:44.846Z,18.10
2022-08-05T02:41:18.511Z,18.10
2022-08-05T02:44:45.531Z,18.00
2022-08-05T02:47:58.420Z,18.00
2022-08-05T02:50:35.179Z,17.90
2022-08-05T02:53:23.231Z,17.90
2022-08-05T03:03:33.661Z,17.80
2022-08-05T03:06:53.878Z,17.70
2022-08-05T03:08:14.383Z,17.70
2022-08-05T03:11:56.441Z,17.70
2022-08-05T03:14:15.293Z,17.60
2022-08-05T03:16:45.952Z,17.70
2022-08-05T03:19:33.728Z,17.70
2022-08-05T03:22:32.425Z,17.80
2022-08-05T03:25:32.530Z,17.70
2022-08-05T03:28:18.555Z,17.70
2022-08-05T03:30:55.264Z,17.80
2022-08-05T03:34:05.632Z,17.80
2022-08-05T03:37:04.949Z,17.80
2022-08-05T03:44:10.407Z,18.00
2022-08-05T03:46:54.493Z,18.20
2022-08-05T03:49:51.484Z,18.30
2022-08-05T03:55:52.227Z,18.40
2022-08-05T03:56:09.877Z,18.60
2022-08-05T03:59:00.364Z,18.80
2022-08-05T04:04:38.071Z,19.00
2022-08-05T04:07:57.232Z,19.20
2022-08-05T04:10:41.936Z,19.30
2022-08-05T04:16:43.299Z,19.60
2022-08-05T04:20:00.211Z,19.80
2022-08-05T04:23:02.068Z,19.90
2022-08-05T04:26:00.362Z,20.10
2022-08-05T04:28:38.768Z,20.40
2022-08-05T04:31:24.112Z,20.50
2022-08-05T04:34:19.236Z,20.70
2022-08-05T04:37:08.821Z,20.90
2022-08-05T04:39:55.714Z,21.10
2022-08-05T04:42:26.262Z,21.30
2022-08-05T04:45:23.040Z,21.40
2022-08-05T04:48:41.324Z,21.50
2022-08-05T04:51:20.665Z,21.70
2022-08-05T04:57:05.537Z,21.90
2022-08-05T05:00:24.192Z,22.00
2022-08-05T05:03:50.509Z,22.10
2022-08-05T05:06:38.827Z,22.20
2022-08-05T05:09:29.782Z,22.40
2022-08-05T05:12:09.253Z,22.40
2022-08-05T05:14:50.562Z,22.50
2022-08-05T05:17:24.270Z,22.60
2022-08-05T05:20:01.763Z,22.60
2022-08-05T05:22:33.336Z,22.70
2022-08-05T05:25:14.812Z,22.70
2022-08-05T05:28:22.291Z,22.80
2022-08-05T05:31:00.426Z,22.90
2022-08-05T05:33:28.672Z,23.00
2022-08-05T05:36:28.713Z,23.10
2022-08-05T05:39:19.118Z,23.10
2022-08-05T05:42:06.137Z,23.20
2022-08-05T05:44:55.372Z,23.30
2022-08-05T05:47:30.516Z,23.30
2022-08-05T05:50:44.374Z,23.40
2022-08-05T05:53:21.309Z,23.50
2022-08-05T05:56:00.998Z,23.60
2022-08-05T05:58:36.348Z,23.60
2022-08-05T06:01:12.798Z,23.80
2022-08-05T06:04:00.665Z,23.90
2022-08-05T06:06:31.001Z,23.90
2022-08-05T06:09:04.106Z,24.00
2022-08-05T06:12:02.688Z,24.10
2022-08-05T06:14:48.920Z,24.10
2022-08-05T06:17:53.152Z,24.20
2022-08-05T06:20:18.898Z,24.20
2022-08-05T06:23:00.262Z,24.30
2022-08-05T06:26:12.728Z,24.40
2022-08-05T06:28:22.603Z,24.40
2022-08-05T06:30:58.170Z,24.50
2022-08-05T06:33:33.270Z,24.50
2022-08-05T06:36:18.860Z,24.60
2022-08-05T06:38:55.075Z,24.70
2022-08-05T06:41:34.673Z,24.80
2022-08-05T06:44:11.882Z,24.80
2022-08-05T06:46:58.049Z,24.90
2022-08-05T06:50:01.251Z,25.00
2022-08-05T06:52:36.638Z,25.10
2022-08-05T06:55:06.629Z,25.10
2022-08-05T06:57:58.043Z,25.20
2022-08-05T07:00:27.629Z,25.30
2022-08-05T07:03:00.586Z,25.30
2022-08-05T07:05:37.406Z,25.40
2022-08-05T07:08:16.991Z,25.40
2022-08-05T07:10:54.387Z,25.50
2022-08-05T07:13:58.822Z,25.60
2022-08-05T07:17:59.875Z,25.60
2022-08-05T07:22:54.119Z,25.60
2022-08-05T07:28:57.748Z,25.70
2022-08-05T07:31:54.428Z,25.80
2022-08-05T07:34:38.178Z,25.90
2022-08-05T07:37:36.072Z,25.80
2022-08-05T07:40:26.720Z,25.90
2022-08-05T07:43:47.839Z,26.10
2022-08-05T07:46:24.425Z,26.00
2022-08-05T07:49:56.245Z,26.10
2022-08-05T07:54:27.414Z,26.10
2022-08-05T07:57:00.380Z,26.20
2022-08-05T07:59:46.923Z,26.20
2022-08-05T08:02:31.025Z,26.30
2022-08-05T08:05:49.867Z,26.30
2022-08-05T08:09:26.446Z,26.40
2022-08-05T08:12:52.980Z,26.50
2022-08-05T08:16:33.271Z,26.50
2022-08-05T08:18:24.288Z,26.50
2022-08-05T08:21:04.359Z,26.50
2022-08-05T08:24:13.970Z,26.50
2022-08-05T08:27:44.953Z,26.60
2022-08-05T08:30:37.745Z,26.70
2022-08-05T08:33:19.191Z,26.70
2022-08-05T08:36:40.247Z,26.70
2022-08-05T08:39:15.801Z,26.80
2022-08-05T08:42:02.289Z,26.90
2022-08-05T08:45:22.114Z,26.90
2022-08-05T08:51:03.700Z,27.10
2022-08-05T08:53:48.089Z,27.10
2022-08-05T08:56:29.507Z,27.20
2022-08-05T08:59:14.625Z,27.20
2022-08-05T09:01:57.282Z,27.20
2022-08-05T09:04:37.107Z,27.30
2022-08-05T09:07:59.078Z,27.40
2022-08-05T09:10:55.149Z,27.40
2022-08-05T09:13:31.663Z,27.40
2022-08-05T09:16:30.221Z,27.50
2022-08-05T09:19:55.152Z,27.50
2022-08-05T09:24:02.462Z,27.60
2022-08-05T09:26:40.413Z,27.60
2022-08-05T09:29:47.561Z,27.70
2022-08-05T09:32:46.745Z,27.80
2022-08-05T09:36:16.677Z,27.70
2022-08-05T09:39:22.250Z,27.90
2022-08-05T09:42:23.289Z,28.10
2022-08-05T09:45:17.538Z,28.20
2022-08-05T09:48:21.219Z,28.30
2022-08-05T09:51:04.380Z,28.50
2022-08-05T09:54:02.102Z,28.40
2022-08-05T09:57:23.164Z,28.50
2022-08-05T10:00:04.766Z,28.60
2022-08-05T10:03:56.922Z,28.60
2022-08-05T10:06:16.091Z,28.70
2022-08-05T10:08:55.362Z,28.90
2022-08-05T10:11:56.364Z,29.00
2022-08-05T10:14:32.532Z,29.00
2022-08-05T10:17:38.118Z,29.20
2022-08-05T10:20:10.886Z,29.20
2022-08-05T10:22:50.878Z,29.20
2022-08-05T10:25:29.018Z,29.30
2022-08-05T10:28:30.304Z,29.50
2022-08-05T10:32:52.054Z,29.60
2022-08-05T10:34:54.286Z,29.60
2022-08-05T10:37:44.506Z,29.60
2022-08-05T10:40:28.587Z,29.70
2022-08-05T10:43:40.470Z,29.70
2022-08-05T10:46:23.936Z,29.70
2022-08-05T10:49:10.044Z,29.70
2022-08-05T10:52:17.582Z,29.70
2022-08-05T10:55:07.653Z,29.80
2022-08-05T10:58:18.004Z,29.90
2022-08-05T11:01:55.081Z,29.90
2022-08-05T11:04:37.342Z,30.00
2022-08-05T11:11:07.729Z,30.20
2022-08-05T11:15:01.208Z,30.30
2022-08-05T11:18:15.041Z,30.30
2022-08-05T11:21:11.714Z,30.20
2022-08-05T11:24:33.199Z,30.20
2022-08-05T11:27:25.593Z,30.10
2022-08-05T11:30:13.388Z,30.10
2022-08-05T11:32:44.449Z,30.20
2022-08-05T11:36:42.883Z,30.10
2022-08-05T11:39:16.331Z,30.10
2022-08-05T11:42:28.568Z,30.10
2022-08-05T11:48:20.580Z,30.10
2022-08-05T11:51:44.015Z,30.10
2022-08-05T11:54:35.816Z,30.10
2022-08-05T11:58:11.834Z,30.10
2022-08-05T12:00:38.603Z,30.20
2022-08-05T12:04:05.522Z,30.20
2022-08-05T12:09:55.830Z,30.10
2022-08-05T12:13:49.111Z,30.10
2022-08-05T12:16:25.697Z,30.10
2022-08-05T12:18:56.592Z,30.30
2022-08-05T12:21:39.157Z,30.20
2022-08-05T12:24:56.674Z,30.30
2022-08-05T12:30:45.930Z,30.30
2022-08-05T12:33:45.531Z,30.30
2022-08-05T12:36:22.695Z,30.30
2022-08-05T12:39:20.309Z,30.40
2022-08-05T12:42:26.768Z,30.40
2022-08-05T12:50:04.720Z,30.40
2022-08-05T12:52:30.386Z,30.40
2022-08-05T12:55:28.407Z,30.40
2022-08-05T12:58:39.174Z,30.40
2022-08-05T13:02:10.015Z,30.40
2022-08-05T13:05:14.349Z,30.50
2022-08-05T13:07:59.325Z,30.40
2022-08-05T13:11:15.474Z,30.40
2022-08-05T13:14:06.342Z,30.50
2022-08-05T13:17:09.367Z,30.50
2022-08-05T13:22:47.862Z,30.50
2022-08-05T13:26:18.135Z,30.50
2022-08-05T13:29:37.373Z,30.50
2022-08-05T13:33:14.193Z,30.50
2022-08-05T13:36:13.022Z,30.60
2022-08-05T13:40:14.139Z,30.60
2022-08-05T13:42:16.764Z,30.60
2022-08-05T13:44:53.390Z,30.50
2022-08-05T13:48:08.452Z,30.50
2022-08-05T13:50:47.812Z,30.60
2022-08-05T13:53:48.538Z,30.50
2022-08-05T13:57:51.392Z,30.60
2022-08-05T14:06:58.730Z,30.60
2022-08-05T14:10:50.859Z,30.70
2022-08-05T14:19:54.661Z,30.80
2022-08-05T14:23:09.053Z,30.80
2022-08-05T14:25:59.590Z,30.80
2022-08-05T14:29:16.324Z,30.80
2022-08-05T14:32:27.130Z,30.70
2022-08-05T14:35:20.779Z,30.60
2022-08-05T14:42:02.585Z,30.60
2022-08-05T14:44:42.459Z,30.60
2022-08-05T14:48:33.304Z,30.60
2022-08-05T14:55:39.606Z,30.60
2022-08-05T14:59:35.634Z,30.60
2022-08-05T15:03:00.192Z,30.60
2022-08-05T15:06:13.268Z,30.70
2022-08-05T15:11:51.223Z,30.80
2022-08-05T15:14:50.688Z,30.80
2022-08-05T15:17:46.651Z,30.90
2022-08-05T17:58:21.590Z,29.10
2022-08-05T18:01:49.348Z,29.00
2022-08-05T18:07:58.425Z,28.80
2022-08-05T18:10:58.779Z,28.80
2022-08-05T18:18:01.503Z,28.60
2022-08-05T18:21:26.131Z,28.50
2022-08-05T18:24:07.706Z,28.40
2022-08-05T18:27:18.803Z,28.40
2022-08-05T18:29:54.026Z,28.20
2022-08-05T18:32:59.941Z,28.20
2022-08-05T18:35:59.873Z,28.10
2022-08-05T18:39:22.400Z,28.10
2022-08-05T18:42:17.546Z,28.00
2022-08-05T18:44:51.473Z,27.90
2022-08-05T18:52:04.542Z,27.70
2022-08-05T18:54:07.574Z,27.60
2022-08-05T19:00:35.212Z,27.50
2022-08-05T19:03:11.358Z,27.40
2022-08-05T19:06:12.424Z,27.30
2022-08-05T19:08:30.570Z,27.30
2022-08-05T19:11:05.177Z,27.20
2022-08-05T19:14:01.796Z,27.20
2022-08-05T19:16:49.925Z,27.10
2022-08-05T19:19:32.330Z,27.00
2022-08-05T19:22:27.759Z,26.90
2022-08-05T19:25:08.734Z,26.90
2022-08-05T19:27:53.191Z,26.90
2022-08-05T19:30:49.511Z,26.80
2022-08-05T19:33:48.419Z,26.80
2022-08-05T19:39:50.994Z,26.70
2022-08-05T19:42:36.037Z,26.60
2022-08-05T19:45:28.537Z,26.50
2022-08-05T19:48:16.350Z,26.50
2022-08-05T19:51:12.833Z,26.50
2022-08-05T21:29:32.475Z,25.00
2022-08-05T21:32:37.196Z,24.90
2022-08-05T21:35:58.714Z,24.90
2022-08-05T21:38:40.580Z,24.90
2022-08-05T21:41:52.400Z,24.80
2022-08-05T21:44:59.984Z,24.80
2022-08-05T21:47:56.143Z,24.70
2022-08-05T21:50:53.116Z,24.70
2022-08-05T21:53:56.876Z,24.70
2022-08-05T21:56:44.740Z,24.70
2022-08-05T22:00:03.230Z,24.60
2022-08-05T22:03:06.717Z,24.60
2022-08-05T22:06:35.569Z,24.60
2022-08-05T22:09:21.099Z,24.50
2022-08-05T22:12:19.373Z,24.50
2022-08-05T22:16:00.722Z,24.50
2022-08-05T22:18:33.481Z,24.40
2022-08-05T22:25:02.767Z,24.30
2022-08-05T22:28:09.495Z,24.30
2022-08-05T22:31:16.229Z,24.30
2022-08-05T22:34:08.540Z,24.20
2022-08-05T22:37:11.020Z,24.20
2022-08-05T22:39:57.009Z,24.20
2022-08-05T22:42:35.917Z,24.20
2022-08-05T22:45:30.759Z,24.20
2022-08-05T22:48:22.207Z,24.10
2022-08-05T22:51:22.747Z,24.10
2022-08-05T22:54:14.749Z,24.10
2022-08-05T22:57:04.677Z,24.10
2022-08-05T22:59:54.101Z,24.00
2022-08-05T23:02:53.324Z,24.00
2022-08-05T23:06:13.715Z,24.00
2022-08-05T23:09:27.773Z,24.00
2022-08-05T23:12:35.144Z,23.90
2022-08-05T23:15:45.364Z,24.00
2022-08-05T23:18:28.647Z,23.90
2022-08-05T23:21:01.943Z,23.90
2022-08-05T23:24:01.144Z,23.90
2022-08-05T23:26:56.323Z,24.00
2022-08-05T23:29:38.782Z,23.90
2022-08-05T23:32:54.640Z,23.90
2022-08-05T23:35:41.100Z,23.90
2022-08-05T23:38:43.810Z,23.90
2022-08-05T23:41:37.432Z,23.90
2022-08-05T23:44:17.430Z,23.90
2022-08-05T23:46:51.659Z,23.90
2022-08-05T23:49:33.953Z,23.90
2022-08-05T23:52:31.604Z,23.90
2022-08-05T23:55:02.616Z,23.90
2022-08-05T23:57:40.722Z,23.80
